sensor_id;sensor_type;location;lat;lon;timestamp;P1;durP1;ratioP1;P2;durP2;ratioP2
54193;SDS011;40102;50.906;6.972;2023-03-14T00:01:33;5.10;;;1.42;;
54193;SDS011;40102;50.906;6.972;2023-03-14T00:03:58;2.80;;;0.85;;
54193;SDS011;40102;50.906;6.972;2023-03-14T00:06:24;5.28;;;0.93;;
54193;SDS011;40102;50.906;6.972;2023-03-14T00:08:50;4.18;;;1.00;;
54193;SDS011;40102;50.906;6.972;2023-03-14T00:11:20;7.00;;;1.33;;
54193;SDS011;40102;50.906;6.972;2023-03-14T00:13:47;1.92;;;0.73;;
54193;SDS011;40102;50.906;6.972;2023-03-14T00:16:13;6.13;;;0.90;;
54193;SDS011;40102;50.906;6.972;2023-03-14T00:18:39;4.32;;;1.25;;
54193;SDS011;40102;50.906;6.972;2023-03-14T00:21:05;4.15;;;1.00;;
54193;SDS011;40102;50.906;6.972;2023-03-14T00:23:33;1.80;;;0.70;;
54193;SDS011;40102;50.906;6.972;2023-03-14T00:26:00;6.50;;;1.30;;
54193;SDS011;40102;50.906;6.972;2023-03-14T00:28:27;3.58;;;0.80;;
54193;SDS011;40102;50.906;6.972;2023-03-14T00:30:53;6.13;;;1.00;;
54193;SDS011;40102;50.906;6.972;2023-03-14T00:33:19;2.85;;;0.75;;
54193;SDS011;40102;50.906;6.972;2023-03-14T00:35:51;5.43;;;0.80;;
54193;SDS011;40102;50.906;6.972;2023-03-14T00:38:29;4.78;;;0.73;;
54193;SDS011;40102;50.906;6.972;2023-03-14T00:40:55;7.28;;;0.90;;
54193;SDS011;40102;50.906;6.972;2023-03-14T00:43:21;6.13;;;0.90;;
54193;SDS011;40102;50.906;6.972;2023-03-14T00:45:47;5.70;;;0.85;;
54193;SDS011;40102;50.906;6.972;2023-03-14T00:48:14;3.78;;;1.02;;
54193;SDS011;40102;50.906;6.972;2023-03-14T00:50:39;1.45;;;0.70;;
54193;SDS011;40102;50.906;6.972;2023-03-14T00:53:05;5.38;;;0.80;;
54193;SDS011;40102;50.906;6.972;2023-03-14T00:55:30;3.92;;;1.05;;
54193;SDS011;40102;50.906;6.972;2023-03-14T00:57:56;3.33;;;0.80;;
54193;SDS011;40102;50.906;6.972;2023-03-14T01:00:21;5.70;;;0.98;;
54193;SDS011;40102;50.906;6.972;2023-03-14T01:02:47;3.25;;;0.80;;
54193;SDS011;40102;50.906;6.972;2023-03-14T01:05:13;3.45;;;0.70;;
54193;SDS011;40102;50.906;6.972;2023-03-14T01:07:38;2.55;;;1.00;;
54193;SDS011;40102;50.906;6.972;2023-03-14T01:10:04;2.20;;;0.80;;
54193;SDS011;40102;50.906;6.972;2023-03-14T01:12:30;4.03;;;0.82;;
54193;SDS011;40102;50.906;6.972;2023-03-14T01:14:57;2.67;;;0.70;;
54193;SDS011;40102;50.906;6.972;2023-03-14T01:17:23;1.67;;;0.90;;
54193;SDS011;40102;50.906;6.972;2023-03-14T01:19:48;4.25;;;0.90;;
54193;SDS011;40102;50.906;6.972;2023-03-14T01:22:13;3.90;;;1.00;;
54193;SDS011;40102;50.906;6.972;2023-03-14T01:24:39;6.85;;;1.25;;
54193;SDS011;40102;50.906;6.972;2023-03-14T01:27:05;2.20;;;0.65;;
54193;SDS011;40102;50.906;6.972;2023-03-14T01:29:30;5.22;;;1.05;;
54193;SDS011;40102;50.906;6.972;2023-03-14T01:31:56;8.18;;;1.15;;
54193;SDS011;40102;50.906;6.972;2023-03-14T01:34:21;3.17;;;0.88;;
54193;SDS011;40102;50.906;6.972;2023-03-14T01:36:47;3.88;;;0.80;;
54193;SDS011;40102;50.906;6.972;2023-03-14T01:39:12;4.38;;;1.00;;
54193;SDS011;40102;50.906;6.972;2023-03-14T01:41:39;3.55;;;0.80;;
54193;SDS011;40102;50.906;6.972;2023-03-14T01:44:11;3.80;;;0.77;;
54193;SDS011;40102;50.906;6.972;2023-03-14T01:46:42;2.42;;;0.60;;
54193;SDS011;40102;50.906;6.972;2023-03-14T01:54:37;3.97;;;0.80;;
54193;SDS011;40102;50.906;6.972;2023-03-14T01:57:23;3.97;;;0.50;;
54193;SDS011;40102;50.906;6.972;2023-03-14T01:59:57;2.67;;;0.50;;
54193;SDS011;40102;50.906;6.972;2023-03-14T02:02:26;0.52;;;0.30;;
54193;SDS011;40102;50.906;6.972;2023-03-14T02:04:53;2.97;;;0.57;;
54193;SDS011;40102;50.906;6.972;2023-03-14T02:07:22;2.03;;;0.50;;
54193;SDS011;40102;50.906;6.972;2023-03-14T02:09:51;2.63;;;0.60;;
54193;SDS011;40102;50.906;6.972;2023-03-14T02:12:19;1.27;;;0.20;;
54193;SDS011;40102;50.906;6.972;2023-03-14T02:14:46;2.03;;;0.40;;
54193;SDS011;40102;50.906;6.972;2023-03-14T02:17:13;5.22;;;0.40;;
54193;SDS011;40102;50.906;6.972;2023-03-14T02:22:30;2.92;;;0.25;;
54193;SDS011;40102;50.906;6.972;2023-03-14T02:25:04;1.10;;;0.25;;
54193;SDS011;40102;50.906;6.972;2023-03-14T02:27:52;1.33;;;0.55;;
54193;SDS011;40102;50.906;6.972;2023-03-14T02:30:22;2.72;;;0.60;;
54193;SDS011;40102;50.906;6.972;2023-03-14T02:32:58;2.55;;;0.68;;
54193;SDS011;40102;50.906;6.972;2023-03-14T02:35:30;3.15;;;0.70;;
54193;SDS011;40102;50.906;6.972;2023-03-14T02:41:09;2.25;;;0.40;;
54193;SDS011;40102;50.906;6.972;2023-03-14T02:43:34;2.40;;;0.40;;
54193;SDS011;40102;50.906;6.972;2023-03-14T02:46:00;3.78;;;0.60;;
54193;SDS011;40102;50.906;6.972;2023-03-14T02:48:31;0.70;;;0.20;;
54193;SDS011;40102;50.906;6.972;2023-03-14T02:51:00;2.28;;;0.40;;
54193;SDS011;40102;50.906;6.972;2023-03-14T02:53:27;0.82;;;0.30;;
54193;SDS011;40102;50.906;6.972;2023-03-14T02:55:57;0.98;;;0.32;;
54193;SDS011;40102;50.906;6.972;2023-03-14T02:58:23;0.95;;;0.30;;
54193;SDS011;40102;50.906;6.972;2023-03-14T03:00:49;2.03;;;0.60;;
54193;SDS011;40102;50.906;6.972;2023-03-14T03:03:15;1.70;;;0.50;;
54193;SDS011;40102;50.906;6.972;2023-03-14T03:05:41;1.02;;;0.75;;
54193;SDS011;40102;50.906;6.972;2023-03-14T03:08:10;1.50;;;0.50;;
54193;SDS011;40102;50.906;6.972;2023-03-14T03:10:35;1.70;;;0.45;;
54193;SDS011;40102;50.906;6.972;2023-03-14T03:13:01;2.42;;;0.50;;
54193;SDS011;40102;50.906;6.972;2023-03-14T03:15:27;1.77;;;0.52;;
54193;SDS011;40102;50.906;6.972;2023-03-14T03:17:53;2.05;;;0.60;;
54193;SDS011;40102;50.906;6.972;2023-03-14T03:20:18;2.05;;;0.50;;
54193;SDS011;40102;50.906;6.972;2023-03-14T03:22:44;2.92;;;0.50;;
54193;SDS011;40102;50.906;6.972;2023-03-14T03:25:09;4.35;;;1.52;;
54193;SDS011;40102;50.906;6.972;2023-03-14T03:27:36;2.17;;;0.63;;
54193;SDS011;40102;50.906;6.972;2023-03-14T03:30:03;2.42;;;0.55;;
54193;SDS011;40102;50.906;6.972;2023-03-14T03:32:30;6.60;;;0.88;;
54193;SDS011;40102;50.906;6.972;2023-03-14T03:34:55;3.75;;;1.30;;
54193;SDS011;40102;50.906;6.972;2023-03-14T03:37:21;4.75;;;0.88;;
54193;SDS011;40102;50.906;6.972;2023-03-14T03:39:46;2.25;;;0.90;;
54193;SDS011;40102;50.906;6.972;2023-03-14T03:42:12;6.18;;;0.70;;
54193;SDS011;40102;50.906;6.972;2023-03-14T03:44:37;3.85;;;0.80;;
54193;SDS011;40102;50.906;6.972;2023-03-14T03:47:02;3.05;;;0.80;;
54193;SDS011;40102;50.906;6.972;2023-03-14T03:49:29;4.57;;;0.73;;
54193;SDS011;40102;50.906;6.972;2023-03-14T03:51:55;5.85;;;0.90;;
54193;SDS011;40102;50.906;6.972;2023-03-14T03:54:20;2.40;;;0.63;;
54193;SDS011;40102;50.906;6.972;2023-03-14T03:56:46;4.60;;;1.17;;
54193;SDS011;40102;50.906;6.972;2023-03-14T03:59:11;3.95;;;0.90;;
54193;SDS011;40102;50.906;6.972;2023-03-14T04:01:36;6.82;;;1.02;;
54193;SDS011;40102;50.906;6.972;2023-03-14T04:04:02;4.63;;;1.10;;
54193;SDS011;40102;50.906;6.972;2023-03-14T04:06:27;3.38;;;0.70;;
54193;SDS011;40102;50.906;6.972;2023-03-14T04:08:53;7.90;;;1.00;;
54193;SDS011;40102;50.906;6.972;2023-03-14T04:11:19;2.38;;;0.70;;
54193;SDS011;40102;50.906;6.972;2023-03-14T04:13:44;5.32;;;1.13;;
54193;SDS011;40102;50.906;6.972;2023-03-14T04:16:14;3.15;;;0.70;;
54193;SDS011;40102;50.906;6.972;2023-03-14T04:18:42;3.55;;;0.60;;
54193;SDS011;40102;50.906;6.972;2023-03-14T04:21:08;2.28;;;0.80;;
54193;SDS011;40102;50.906;6.972;2023-03-14T04:23:33;2.20;;;0.80;;
54193;SDS011;40102;50.906;6.972;2023-03-14T04:25:59;5.43;;;1.05;;
54193;SDS011;40102;50.906;6.972;2023-03-14T04:28:24;3.22;;;0.60;;
54193;SDS011;40102;50.906;6.972;2023-03-14T04:30:50;4.65;;;0.60;;
54193;SDS011;40102;50.906;6.972;2023-03-14T04:33:18;5.40;;;0.70;;
54193;SDS011;40102;50.906;6.972;2023-03-14T04:35:44;3.05;;;0.60;;
54193;SDS011;40102;50.906;6.972;2023-03-14T04:38:10;2.25;;;0.70;;
54193;SDS011;40102;50.906;6.972;2023-03-14T04:40:37;4.38;;;1.00;;
54193;SDS011;40102;50.906;6.972;2023-03-14T04:43:03;4.25;;;0.70;;
54193;SDS011;40102;50.906;6.972;2023-03-14T04:45:28;3.50;;;0.63;;
54193;SDS011;40102;50.906;6.972;2023-03-14T04:47:55;6.70;;;0.90;;
54193;SDS011;40102;50.906;6.972;2023-03-14T04:50:20;2.85;;;0.50;;
54193;SDS011;40102;50.906;6.972;2023-03-14T04:52:45;2.63;;;0.85;;
54193;SDS011;40102;50.906;6.972;2023-03-14T04:55:11;3.45;;;0.82;;
54193;SDS011;40102;50.906;6.972;2023-03-14T04:57:37;5.35;;;0.65;;
54193;SDS011;40102;50.906;6.972;2023-03-14T05:00:03;1.90;;;0.52;;
54193;SDS011;40102;50.906;6.972;2023-03-14T05:02:32;3.63;;;0.68;;
54193;SDS011;40102;50.906;6.972;2023-03-14T05:04:59;2.53;;;0.40;;
54193;SDS011;40102;50.906;6.972;2023-03-14T05:07:24;3.85;;;0.40;;
54193;SDS011;40102;50.906;6.972;2023-03-14T05:09:52;7.68;;;0.80;;
54193;SDS011;40102;50.906;6.972;2023-03-14T05:12:18;1.20;;;0.30;;
54193;SDS011;40102;50.906;6.972;2023-03-14T05:14:44;1.05;;;0.40;;
54193;SDS011;40102;50.906;6.972;2023-03-14T05:17:10;1.85;;;0.60;;
54193;SDS011;40102;50.906;6.972;2023-03-14T05:19:36;2.70;;;0.50;;
54193;SDS011;40102;50.906;6.972;2023-03-14T05:22:02;2.38;;;0.50;;
54193;SDS011;40102;50.906;6.972;2023-03-14T05:24:28;5.88;;;0.40;;
54193;SDS011;40102;50.906;6.972;2023-03-14T05:26:53;1.58;;;0.50;;
54193;SDS011;40102;50.906;6.972;2023-03-14T05:29:18;3.78;;;1.15;;
54193;SDS011;40102;50.906;6.972;2023-03-14T05:31:44;0.40;;;0.30;;
54193;SDS011;40102;50.906;6.972;2023-03-14T05:34:09;1.30;;;0.30;;
54193;SDS011;40102;50.906;6.972;2023-03-14T05:36:35;1.40;;;0.60;;
54193;SDS011;40102;50.906;6.972;2023-03-14T05:39:00;1.58;;;0.50;;
54193;SDS011;40102;50.906;6.972;2023-03-14T05:41:26;1.10;;;0.40;;
54193;SDS011;40102;50.906;6.972;2023-03-14T05:43:51;1.40;;;0.57;;
54193;SDS011;40102;50.906;6.972;2023-03-14T05:46:16;0.43;;;0.25;;
54193;SDS011;40102;50.906;6.972;2023-03-14T05:48:42;2.13;;;0.40;;
54193;SDS011;40102;50.906;6.972;2023-03-14T05:51:08;0.57;;;0.30;;
54193;SDS011;40102;50.906;6.972;2023-03-14T05:53:33;1.75;;;0.20;;
54193;SDS011;40102;50.906;6.972;2023-03-14T05:55:58;0.10;;;0.10;;
54193;SDS011;40102;50.906;6.972;2023-03-14T05:58:24;2.05;;;0.28;;
54193;SDS011;40102;50.906;6.972;2023-03-14T06:00:49;1.50;;;0.32;;
54193;SDS011;40102;50.906;6.972;2023-03-14T06:03:15;2.50;;;0.43;;
54193;SDS011;40102;50.906;6.972;2023-03-14T06:05:40;0.75;;;0.30;;
54193;SDS011;40102;50.906;6.972;2023-03-14T06:08:06;1.05;;;0.40;;
54193;SDS011;40102;50.906;6.972;2023-03-14T06:10:31;0.63;;;0.35;;
54193;SDS011;40102;50.906;6.972;2023-03-14T06:12:57;3.30;;;1.02;;
54193;SDS011;40102;50.906;6.972;2023-03-14T06:15:22;0.77;;;0.45;;
54193;SDS011;40102;50.906;6.972;2023-03-14T06:17:47;0.77;;;0.30;;
54193;SDS011;40102;50.906;6.972;2023-03-14T06:20:13;0.70;;;0.30;;
54193;SDS011;40102;50.906;6.972;2023-03-14T06:22:39;2.95;;;0.50;;
54193;SDS011;40102;50.906;6.972;2023-03-14T06:25:05;0.50;;;0.20;;
54193;SDS011;40102;50.906;6.972;2023-03-14T06:27:31;1.13;;;0.30;;
54193;SDS011;40102;50.906;6.972;2023-03-14T06:30:00;1.85;;;0.20;;
54193;SDS011;40102;50.906;6.972;2023-03-14T06:32:25;2.88;;;0.38;;
54193;SDS011;40102;50.906;6.972;2023-03-14T06:34:51;1.33;;;0.30;;
54193;SDS011;40102;50.906;6.972;2023-03-14T06:37:16;0.70;;;0.40;;
54193;SDS011;40102;50.906;6.972;2023-03-14T06:39:41;0.20;;;0.20;;
54193;SDS011;40102;50.906;6.972;2023-03-14T06:42:08;1.02;;;0.38;;
54193;SDS011;40102;50.906;6.972;2023-03-14T06:44:34;2.97;;;0.45;;
54193;SDS011;40102;50.906;6.972;2023-03-14T06:47:00;1.08;;;0.50;;
54193;SDS011;40102;50.906;6.972;2023-03-14T06:49:25;1.65;;;0.63;;
54193;SDS011;40102;50.906;6.972;2023-03-14T06:51:51;1.10;;;0.30;;
54193;SDS011;40102;50.906;6.972;2023-03-14T06:54:16;0.75;;;0.30;;
54193;SDS011;40102;50.906;6.972;2023-03-14T06:56:42;0.63;;;0.22;;
54193;SDS011;40102;50.906;6.972;2023-03-14T06:59:10;0.17;;;0.10;;
54193;SDS011;40102;50.906;6.972;2023-03-14T07:01:35;0.30;;;0.20;;
54193;SDS011;40102;50.906;6.972;2023-03-14T07:04:01;0.32;;;0.17;;
54193;SDS011;40102;50.906;6.972;2023-03-14T07:06:27;0.32;;;0.10;;
54193;SDS011;40102;50.906;6.972;2023-03-14T07:08:54;0.40;;;0.10;;
54193;SDS011;40102;50.906;6.972;2023-03-14T07:11:20;0.25;;;0.10;;
54193;SDS011;40102;50.906;6.972;2023-03-14T07:13:47;0.20;;;0.20;;
54193;SDS011;40102;50.906;6.972;2023-03-14T07:16:12;0.90;;;0.10;;
54193;SDS011;40102;50.906;6.972;2023-03-14T07:18:38;1.80;;;0.10;;
54193;SDS011;40102;50.906;6.972;2023-03-14T07:21:04;1.00;;;0.20;;
54193;SDS011;40102;50.906;6.972;2023-03-14T07:25:59;0.28;;;0.28;;
54193;SDS011;40102;50.906;6.972;2023-03-14T07:28:25;0.10;;;0.10;;
54193;SDS011;40102;50.906;6.972;2023-03-14T07:30:52;0.47;;;0.10;;
54193;SDS011;40102;50.906;6.972;2023-03-14T07:33:18;1.10;;;0.28;;
54193;SDS011;40102;50.906;6.972;2023-03-14T07:35:46;0.35;;;0.10;;
54193;SDS011;40102;50.906;6.972;2023-03-14T07:40:40;0.10;;;0.10;;
54193;SDS011;40102;50.906;6.972;2023-03-14T07:43:06;0.65;;;0.10;;
54193;SDS011;40102;50.906;6.972;2023-03-14T07:45:31;0.35;;;0.20;;
54193;SDS011;40102;50.906;6.972;2023-03-14T07:47:57;0.10;;;0.10;;
54193;SDS011;40102;50.906;6.972;2023-03-14T07:50:26;0.10;;;0.10;;
54193;SDS011;40102;50.906;6.972;2023-03-14T07:52:52;0.20;;;0.10;;
54193;SDS011;40102;50.906;6.972;2023-03-14T07:55:18;0.20;;;0.17;;
54193;SDS011;40102;50.906;6.972;2023-03-14T07:57:43;4.53;;;0.30;;
54193;SDS011;40102;50.906;6.972;2023-03-14T08:00:12;0.10;;;0.10;;
54193;SDS011;40102;50.906;6.972;2023-03-14T08:02:41;0.20;;;0.10;;
54193;SDS011;40102;50.906;6.972;2023-03-14T08:05:07;1.33;;;0.30;;
54193;SDS011;40102;50.906;6.972;2023-03-14T08:07:33;0.70;;;0.10;;
54193;SDS011;40102;50.906;6.972;2023-03-14T08:09:58;0.30;;;0.20;;
54193;SDS011;40102;50.906;6.972;2023-03-14T08:12:24;0.30;;;0.20;;
54193;SDS011;40102;50.906;6.972;2023-03-14T08:14:49;0.10;;;0.10;;
54193;SDS011;40102;50.906;6.972;2023-03-14T08:17:14;0.10;;;0.10;;
54193;SDS011;40102;50.906;6.972;2023-03-14T08:19:43;0.10;;;0.10;;
54193;SDS011;40102;50.906;6.972;2023-03-14T08:22:08;0.10;;;0.10;;
54193;SDS011;40102;50.906;6.972;2023-03-14T08:24:34;0.03;;;0.00;;
54193;SDS011;40102;50.906;6.972;2023-03-14T08:26:59;0.22;;;0.13;;
54193;SDS011;40102;50.906;6.972;2023-03-14T08:29:25;0.45;;;0.20;;
54193;SDS011;40102;50.906;6.972;2023-03-14T08:31:51;0.10;;;0.10;;
54193;SDS011;40102;50.906;6.972;2023-03-14T08:34:16;0.90;;;0.20;;
54193;SDS011;40102;50.906;6.972;2023-03-14T08:36:42;0.20;;;0.10;;
54193;SDS011;40102;50.906;6.972;2023-03-14T08:39:10;0.30;;;0.10;;
54193;SDS011;40102;50.906;6.972;2023-03-14T08:41:36;0.10;;;0.10;;
54193;SDS011;40102;50.906;6.972;2023-03-14T08:44:09;0.25;;;0.20;;
54193;SDS011;40102;50.906;6.972;2023-03-14T08:46:36;0.15;;;0.15;;
54193;SDS011;40102;50.906;6.972;2023-03-14T08:49:02;0.10;;;0.10;;
54193;SDS011;40102;50.906;6.972;2023-03-14T08:51:28;0.10;;;0.10;;
54193;SDS011;40102;50.906;6.972;2023-03-14T08:53:54;0.10;;;0.10;;
54193;SDS011;40102;50.906;6.972;2023-03-14T08:56:19;0.57;;;0.20;;
54193;SDS011;40102;50.906;6.972;2023-03-14T08:58:45;0.20;;;0.20;;
54193;SDS011;40102;50.906;6.972;2023-03-14T09:01:10;0.10;;;0.10;;
54193;SDS011;40102;50.906;6.972;2023-03-14T09:03:36;0.28;;;0.20;;
54193;SDS011;40102;50.906;6.972;2023-03-14T09:06:03;0.63;;;0.40;;
54193;SDS011;40102;50.906;6.972;2023-03-14T09:10:58;0.85;;;0.30;;
54193;SDS011;40102;50.906;6.972;2023-03-14T09:13:24;2.28;;;0.45;;
54193;SDS011;40102;50.906;6.972;2023-03-14T09:15:50;1.27;;;0.40;;
54193;SDS011;40102;50.906;6.972;2023-03-14T09:18:22;0.55;;;0.30;;
54193;SDS011;40102;50.906;6.972;2023-03-14T09:20:48;1.92;;;0.40;;
54193;SDS011;40102;50.906;6.972;2023-03-14T09:23:14;0.77;;;0.20;;
54193;SDS011;40102;50.906;6.972;2023-03-14T09:25:40;1.20;;;0.40;;
54193;SDS011;40102;50.906;6.972;2023-03-14T09:28:06;0.35;;;0.20;;
54193;SDS011;40102;50.906;6.972;2023-03-14T09:30:31;1.70;;;0.30;;
54193;SDS011;40102;50.906;6.972;2023-03-14T09:32:57;1.58;;;0.70;;
54193;SDS011;40102;50.906;6.972;2023-03-14T09:35:24;0.50;;;0.30;;
54193;SDS011;40102;50.906;6.972;2023-03-14T09:37:50;0.20;;;0.10;;
54193;SDS011;40102;50.906;6.972;2023-03-14T09:40:16;0.65;;;0.30;;
54193;SDS011;40102;50.906;6.972;2023-03-14T09:42:47;3.72;;;0.40;;
54193;SDS011;40102;50.906;6.972;2023-03-14T09:45:18;2.20;;;0.20;;
54193;SDS011;40102;50.906;6.972;2023-03-14T09:47:45;0.90;;;0.25;;
54193;SDS011;40102;50.906;6.972;2023-03-14T09:50:15;1.75;;;0.30;;
54193;SDS011;40102;50.906;6.972;2023-03-14T09:52:45;2.22;;;0.30;;
54193;SDS011;40102;50.906;6.972;2023-03-14T09:55:18;0.98;;;0.30;;
54193;SDS011;40102;50.906;6.972;2023-03-14T09:57:46;1.10;;;0.52;;
54193;SDS011;40102;50.906;6.972;2023-03-14T10:00:19;0.95;;;0.50;;
54193;SDS011;40102;50.906;6.972;2023-03-14T10:02:53;1.10;;;0.40;;
54193;SDS011;40102;50.906;6.972;2023-03-14T10:05:37;0.47;;;0.30;;
54193;SDS011;40102;50.906;6.972;2023-03-14T10:08:08;1.48;;;0.47;;
54193;SDS011;40102;50.906;6.972;2023-03-14T10:10:35;0.50;;;0.50;;
54193;SDS011;40102;50.906;6.972;2023-03-14T10:15:58;0.50;;;0.50;;
54193;SDS011;40102;50.906;6.972;2023-03-14T10:18:25;0.63;;;0.60;;
54193;SDS011;40102;50.906;6.972;2023-03-14T10:21:09;0.50;;;0.50;;
54193;SDS011;40102;50.906;6.972;2023-03-14T10:23:45;1.13;;;0.55;;
54193;SDS011;40102;50.906;6.972;2023-03-14T10:26:18;2.38;;;0.80;;
54193;SDS011;40102;50.906;6.972;2023-03-14T10:28:52;1.75;;;0.82;;
54193;SDS011;40102;50.906;6.972;2023-03-14T10:31:18;1.50;;;0.80;;
54193;SDS011;40102;50.906;6.972;2023-03-14T10:34:02;1.00;;;0.70;;
54193;SDS011;40102;50.906;6.972;2023-03-14T10:36:30;1.00;;;0.73;;
54193;SDS011;40102;50.906;6.972;2023-03-14T10:39:04;1.95;;;0.70;;
54193;SDS011;40102;50.906;6.972;2023-03-14T10:41:56;1.13;;;0.70;;
54193;SDS011;40102;50.906;6.972;2023-03-14T10:44:29;3.28;;;0.60;;
54193;SDS011;40102;50.906;6.972;2023-03-14T10:47:00;2.83;;;0.65;;
54193;SDS011;40102;50.906;6.972;2023-03-14T10:49:29;1.92;;;0.77;;
54193;SDS011;40102;50.906;6.972;2023-03-14T10:52:02;1.08;;;0.82;;
54193;SDS011;40102;50.906;6.972;2023-03-14T10:54:39;1.10;;;0.60;;
54193;SDS011;40102;50.906;6.972;2023-03-14T10:57:05;1.73;;;1.17;;
54193;SDS011;40102;50.906;6.972;2023-03-14T10:59:37;1.58;;;0.95;;
54193;SDS011;40102;50.906;6.972;2023-03-14T11:05:09;0.88;;;0.80;;
54193;SDS011;40102;50.906;6.972;2023-03-14T11:07:59;2.20;;;1.00;;
54193;SDS011;40102;50.906;6.972;2023-03-14T11:10:32;1.00;;;0.80;;
54193;SDS011;40102;50.906;6.972;2023-03-14T11:18:48;1.55;;;0.70;;
54193;SDS011;40102;50.906;6.972;2023-03-14T11:29:40;1.25;;;0.80;;
54193;SDS011;40102;50.906;6.972;2023-03-14T11:34:53;2.22;;;0.80;;
54193;SDS011;40102;50.906;6.972;2023-03-14T11:39:54;1.48;;;1.00;;
54193;SDS011;40102;50.906;6.972;2023-03-14T11:42:25;2.70;;;0.85;;
54193;SDS011;40102;50.906;6.972;2023-03-14T11:44:51;1.88;;;0.90;;
54193;SDS011;40102;50.906;6.972;2023-03-14T11:47:24;1.08;;;0.80;;
54193;SDS011;40102;50.906;6.972;2023-03-14T11:52:56;0.30;;;0.20;;
54193;SDS011;40102;50.906;6.972;2023-03-14T12:00:44;0.40;;;0.30;;
54193;SDS011;40102;50.906;6.972;2023-03-14T12:08:41;0.28;;;0.28;;
54193;SDS011;40102;50.906;6.972;2023-03-14T12:11:15;1.17;;;0.40;;
54193;SDS011;40102;50.906;6.972;2023-03-14T12:13:46;0.20;;;0.20;;
54193;SDS011;40102;50.906;6.972;2023-03-14T12:16:26;0.85;;;0.50;;
54193;SDS011;40102;50.906;6.972;2023-03-14T12:19:24;1.45;;;0.40;;
54193;SDS011;40102;50.906;6.972;2023-03-14T12:24:20;3.05;;;0.80;;
54193;SDS011;40102;50.906;6.972;2023-03-14T12:26:54;0.77;;;0.77;;
54193;SDS011;40102;50.906;6.972;2023-03-14T12:29:21;0.90;;;0.60;;
54193;SDS011;40102;50.906;6.972;2023-03-14T12:31:48;1.75;;;0.77;;
54193;SDS011;40102;50.906;6.972;2023-03-14T12:34:43;2.38;;;0.73;;
54193;SDS011;40102;50.906;6.972;2023-03-14T12:39:53;0.68;;;0.60;;
54193;SDS011;40102;50.906;6.972;2023-03-14T12:42:24;2.63;;;0.60;;
54193;SDS011;40102;50.906;6.972;2023-03-14T12:50:36;1.10;;;0.70;;
54193;SDS011;40102;50.906;6.972;2023-03-14T12:53:22;1.85;;;0.43;;
54193;SDS011;40102;50.906;6.972;2023-03-14T13:02:00;2.08;;;0.70;;
54193;SDS011;40102;50.906;6.972;2023-03-14T13:04:45;0.63;;;0.40;;
54193;SDS011;40102;50.906;6.972;2023-03-14T13:10:00;1.08;;;0.50;;
54193;SDS011;40102;50.906;6.972;2023-03-14T13:12:31;1.38;;;0.52;;
54193;SDS011;40102;50.906;6.972;2023-03-14T13:15:17;2.15;;;0.77;;
54193;SDS011;40102;50.906;6.972;2023-03-14T13:17:46;1.80;;;0.60;;
54193;SDS011;40102;50.906;6.972;2023-03-14T13:20:18;1.13;;;0.50;;
54193;SDS011;40102;50.906;6.972;2023-03-14T13:22:55;1.75;;;0.60;;
54193;SDS011;40102;50.906;6.972;2023-03-14T13:25:21;1.42;;;0.50;;
54193;SDS011;40102;50.906;6.972;2023-03-14T13:27:47;2.80;;;0.75;;
54193;SDS011;40102;50.906;6.972;2023-03-14T13:32:44;2.95;;;0.50;;
54193;SDS011;40102;50.906;6.972;2023-03-14T13:35:16;1.15;;;0.60;;
54193;SDS011;40102;50.906;6.972;2023-03-14T13:37:44;1.92;;;0.73;;
54193;SDS011;40102;50.906;6.972;2023-03-14T13:40:18;3.50;;;0.65;;
54193;SDS011;40102;50.906;6.972;2023-03-14T13:42:45;3.30;;;0.70;;
54193;SDS011;40102;50.906;6.972;2023-03-14T13:45:12;1.00;;;0.50;;
54193;SDS011;40102;50.906;6.972;2023-03-14T13:47:39;2.97;;;0.60;;
54193;SDS011;40102;50.906;6.972;2023-03-14T13:50:05;1.55;;;0.55;;
54193;SDS011;40102;50.906;6.972;2023-03-14T13:52:46;1.52;;;0.50;;
54193;SDS011;40102;50.906;6.972;2023-03-14T13:55:17;3.95;;;0.68;;
54193;SDS011;40102;50.906;6.972;2023-03-14T13:57:49;1.40;;;0.60;;
54193;SDS011;40102;50.906;6.972;2023-03-14T14:00:22;3.25;;;0.82;;
54193;SDS011;40102;50.906;6.972;2023-03-14T14:02:52;5.25;;;0.75;;
54193;SDS011;40102;50.906;6.972;2023-03-14T14:05:22;3.33;;;0.75;;
54193;SDS011;40102;50.906;6.972;2023-03-14T14:07:50;3.13;;;0.82;;
54193;SDS011;40102;50.906;6.972;2023-03-14T14:10:17;5.22;;;0.93;;
54193;SDS011;40102;50.906;6.972;2023-03-14T14:12:53;3.20;;;1.02;;
54193;SDS011;40102;50.906;6.972;2023-03-14T14:15:28;2.10;;;0.70;;
54193;SDS011;40102;50.906;6.972;2023-03-14T14:18:04;4.95;;;0.93;;
54193;SDS011;40102;50.906;6.972;2023-03-14T14:20:34;5.38;;;1.15;;
54193;SDS011;40102;50.906;6.972;2023-03-14T14:23:04;8.07;;;1.42;;
54193;SDS011;40102;50.906;6.972;2023-03-14T14:25:34;7.43;;;1.48;;
54193;SDS011;40102;50.906;6.972;2023-03-14T14:28:13;5.85;;;0.93;;
54193;SDS011;40102;50.906;6.972;2023-03-14T14:30:40;7.32;;;1.17;;
54193;SDS011;40102;50.906;6.972;2023-03-14T14:33:19;8.25;;;1.77;;
54193;SDS011;40102;50.906;6.972;2023-03-14T14:35:56;11.73;;;1.30;;
54193;SDS011;40102;50.906;6.972;2023-03-14T14:38:23;6.43;;;1.25;;
54193;SDS011;40102;50.906;6.972;2023-03-14T14:40:50;6.80;;;1.42;;
54193;SDS011;40102;50.906;6.972;2023-03-14T14:43:22;13.23;;;1.83;;
54193;SDS011;40102;50.906;6.972;2023-03-14T14:45:53;6.60;;;1.33;;
54193;SDS011;40102;50.906;6.972;2023-03-14T14:48:25;4.85;;;1.20;;
54193;SDS011;40102;50.906;6.972;2023-03-14T14:53:23;7.05;;;1.65;;
54193;SDS011;40102;50.906;6.972;2023-03-14T14:56:17;6.18;;;1.42;;
54193;SDS011;40102;50.906;6.972;2023-03-14T14:58:51;16.45;;;1.80;;
54193;SDS011;40102;50.906;6.972;2023-03-14T15:01:26;9.77;;;1.33;;
54193;SDS011;40102;50.906;6.972;2023-03-14T15:03:57;8.18;;;1.42;;
54193;SDS011;40102;50.906;6.972;2023-03-14T15:06:24;8.57;;;1.23;;
54193;SDS011;40102;50.906;6.972;2023-03-14T15:08:53;8.48;;;1.50;;
54193;SDS011;40102;50.906;6.972;2023-03-14T15:11:19;5.70;;;1.17;;
54193;SDS011;40102;50.906;6.972;2023-03-14T15:13:50;5.70;;;1.38;;
54193;SDS011;40102;50.906;6.972;2023-03-14T15:16:20;6.75;;;0.98;;
54193;SDS011;40102;50.906;6.972;2023-03-14T15:18:54;7.78;;;1.30;;
54193;SDS011;40102;50.906;6.972;2023-03-14T15:21:22;6.18;;;1.05;;
54193;SDS011;40102;50.906;6.972;2023-03-14T15:23:48;5.00;;;0.90;;
54193;SDS011;40102;50.906;6.972;2023-03-14T15:26:15;7.22;;;1.25;;
54193;SDS011;40102;50.906;6.972;2023-03-14T15:28:43;7.20;;;1.10;;
54193;SDS011;40102;50.906;6.972;2023-03-14T15:31:10;8.85;;;1.20;;
54193;SDS011;40102;50.906;6.972;2023-03-14T15:33:37;7.53;;;1.40;;
54193;SDS011;40102;50.906;6.972;2023-03-14T15:36:13;10.35;;;1.42;;
54193;SDS011;40102;50.906;6.972;2023-03-14T15:38:47;8.38;;;1.20;;
54193;SDS011;40102;50.906;6.972;2023-03-14T15:41:12;7.07;;;1.63;;
54193;SDS011;40102;50.906;6.972;2023-03-14T15:43:38;6.05;;;1.13;;
54193;SDS011;40102;50.906;6.972;2023-03-14T15:46:03;6.82;;;1.35;;
54193;SDS011;40102;50.906;6.972;2023-03-14T15:48:31;7.78;;;1.45;;
54193;SDS011;40102;50.906;6.972;2023-03-14T15:50:56;6.78;;;1.30;;
54193;SDS011;40102;50.906;6.972;2023-03-14T15:53:22;7.85;;;1.20;;
54193;SDS011;40102;50.906;6.972;2023-03-14T15:55:47;8.10;;;1.73;;
54193;SDS011;40102;50.906;6.972;2023-03-14T15:58:16;9.32;;;1.73;;
54193;SDS011;40102;50.906;6.972;2023-03-14T16:00:43;9.80;;;1.55;;
54193;SDS011;40102;50.906;6.972;2023-03-14T16:03:09;9.65;;;1.58;;
54193;SDS011;40102;50.906;6.972;2023-03-14T16:05:35;6.38;;;1.50;;
54193;SDS011;40102;50.906;6.972;2023-03-14T16:08:01;8.77;;;1.42;;
54193;SDS011;40102;50.906;6.972;2023-03-14T16:10:28;12.65;;;1.83;;
54193;SDS011;40102;50.906;6.972;2023-03-14T16:12:54;10.50;;;1.63;;
54193;SDS011;40102;50.906;6.972;2023-03-14T16:15:19;10.80;;;1.45;;
54193;SDS011;40102;50.906;6.972;2023-03-14T16:17:44;14.13;;;2.05;;